createdAt,value
2019-05-21T14:09:24.007Z,57.00
2019-05-21T14:20:10.616Z,57.20
2019-05-21T14:24:20.946Z,57.10
2019-05-21T14:29:09.468Z,56.50
2019-05-21T14:37:56.195Z,56.60
2019-05-21T14:40:31.880Z,56.80
2019-05-21T14:45:43.143Z,57.10
2019-05-21T15:00:00.698Z,57.40
2019-05-21T15:02:31.059Z,57.50
2019-05-21T15:07:17.276Z,58.10
2019-05-21T15:09:22.009Z,57.40
2019-05-21T15:11:26.803Z,57.30
2019-05-21T15:13:32.159Z,57.10
2019-05-21T15:15:37.188Z,56.90
2019-05-21T15:17:42.048Z,56.70
2019-05-21T15:19:49.419Z,56.70
2019-05-21T15:21:58.575Z,56.60
2019-05-21T15:24:04.260Z,56.70
2019-05-21T15:26:09.684Z,56.60
2019-05-21T15:28:14.561Z,56.50
2019-05-21T15:30:21.883Z,56.40
2019-05-21T15:32:29.148Z,56.30
2019-05-21T15:34:33.570Z,56.30
2019-05-21T15:36:39.094Z,56.20
2019-05-21T15:38:50.902Z,56.10
2019-05-21T15:41:09.802Z,56.20
2019-05-21T15:43:01.651Z,56.00
2019-05-21T15:45:07.859Z,55.90
2019-05-21T15:47:13.293Z,55.80
2019-05-21T15:49:33.336Z,55.80
2019-05-21T15:51:25.598Z,55.80
2019-05-21T15:53:30.536Z,55.80
2019-05-21T15:55:35.555Z,55.80
2019-05-21T15:57:40.294Z,56.00
2019-05-21T15:59:45.323Z,56.00
2019-05-21T16:01:50.190Z,56.00
2019-05-21T16:03:54.960Z,55.90
2019-05-21T16:05:59.904Z,55.90
2019-05-21T16:08:05.482Z,55.90
2019-05-21T16:10:11.088Z,55.90
2019-05-21T16:12:16.058Z,55.90
2019-05-21T16:14:21.195Z,55.90
2019-05-21T16:16:26.588Z,55.90
2019-05-21T16:18:31.731Z,56.00
2019-05-21T16:20:36.634Z,56.50
2019-05-21T16:22:45.843Z,55.90
2019-05-21T16:24:52.248Z,56.00
2019-05-21T16:26:57.120Z,56.10
2019-05-21T16:29:03.056Z,56.20
2019-05-21T16:31:07.819Z,56.10
2019-05-21T16:33:14.726Z,56.20
2019-05-21T16:35:19.788Z,56.20
2019-05-21T16:37:25.073Z,56.10
2019-05-21T16:39:33.524Z,56.10
2019-05-21T16:41:44.796Z,56.00
2019-05-21T16:43:44.758Z,56.00
2019-05-21T16:45:49.566Z,55.80
2019-05-21T16:47:55.449Z,55.80
2019-05-21T16:50:00.369Z,55.60
2019-05-21T16:52:05.380Z,55.50
2019-05-21T16:54:10.370Z,55.30
2019-05-21T16:56:15.367Z,55.20
2019-05-21T16:58:20.318Z,55.00
2019-05-21T17:00:26.889Z,55.10
2019-05-21T17:02:31.745Z,55.00
2019-05-21T17:04:36.569Z,54.50
2019-05-21T17:06:41.437Z,54.10
2019-05-21T17:08:46.292Z,54.20
2019-05-21T17:10:51.423Z,54.10
2019-05-21T17:12:56.353Z,54.70
2019-05-21T17:15:01.199Z,54.20
2019-05-21T17:17:07.151Z,54.20
2019-05-21T17:19:11.981Z,54.00
2019-05-21T17:21:16.821Z,53.80
2019-05-21T17:23:21.728Z,53.80
2019-05-21T17:25:26.652Z,53.90
2019-05-21T17:27:31.604Z,54.40
2019-05-21T17:29:36.491Z,53.60
2019-05-21T17:31:41.395Z,53.60
2019-05-21T17:33:46.251Z,53.40
2019-05-21T17:35:51.193Z,53.30
2019-05-21T17:37:56.210Z,53.90
2019-05-21T17:40:01.056Z,53.10
2019-05-21T17:42:15.096Z,53.00
2019-05-21T17:44:17.040Z,53.20
2019-05-21T17:46:22.086Z,53.20
2019-05-21T17:48:28.355Z,53.20
2019-05-21T17:50:33.248Z,53.20
2019-05-21T17:52:38.294Z,53.10
2019-05-21T17:54:56.216Z,53.10
2019-05-21T17:56:49.561Z,53.00
2019-05-21T17:58:54.506Z,52.90
2019-05-21T18:01:02.933Z,52.90
2019-05-21T18:03:07.908Z,52.90
2019-05-21T18:05:12.831Z,52.70
2019-05-21T18:07:17.912Z,52.80
2019-05-21T18:09:28.678Z,52.50
2019-05-21T18:11:34.045Z,52.50
2019-05-21T18:13:39.160Z,52.90
2019-05-21T18:15:45.893Z,52.20
2019-05-21T18:17:54.761Z,52.20
2019-05-21T18:20:00.392Z,52.30
2019-05-21T18:22:08.012Z,52.20
2019-05-21T18:24:13.097Z,52.40
2019-05-21T18:26:19.407Z,52.30
2019-05-21T18:28:24.421Z,52.30
2019-05-21T18:30:29.193Z,52.40
2019-05-21T18:32:34.291Z,52.50
2019-05-21T18:34:39.782Z,52.70
2019-05-21T18:36:48.663Z,53.40
2019-05-21T18:38:53.883Z,53.30
2019-05-21T18:40:59.281Z,52.90
2019-05-21T18:43:04.074Z,53.00
2019-05-21T18:45:09.716Z,53.00
2019-05-21T18:47:18.191Z,52.80
2019-05-21T18:49:23.536Z,53.00
2019-05-21T18:51:28.385Z,52.80
2019-05-21T18:53:36.368Z,52.70
2019-05-21T18:55:41.604Z,52.90
2019-05-21T18:57:46.510Z,53.00
2019-05-21T18:59:52.049Z,52.90
2019-05-21T19:01:59.566Z,52.60
2019-05-21T19:04:06.936Z,52.70
2019-05-21T19:06:11.857Z,53.10
2019-05-21T19:08:16.760Z,52.50
2019-05-21T19:10:21.714Z,53.10
2019-05-21T19:12:37.383Z,53.10
2019-05-21T19:14:33.202Z,52.90
2019-05-21T19:16:38.787Z,52.70
2019-05-21T19:18:43.757Z,52.30
2019-05-21T19:20:50.145Z,52.50
2019-05-21T19:22:56.709Z,52.50
2019-05-21T19:25:03.068Z,52.20
2019-05-21T19:27:08.529Z,52.00
2019-05-21T19:29:19.447Z,52.10
2019-05-21T19:31:24.250Z,52.20
2019-05-21T19:33:29.195Z,51.90
2019-05-21T19:35:34.209Z,51.90
2019-05-21T19:37:39.696Z,51.80
2019-05-21T19:39:44.551Z,52.00
2019-05-21T19:41:49.502Z,51.90
2019-05-21T19:43:54.377Z,51.90
2019-05-21T19:45:59.269Z,52.10
2019-05-21T19:48:04.155Z,52.30
2019-05-21T19:50:09.203Z,52.70
2019-05-21T19:52:14.257Z,52.90
2019-05-21T19:54:19.110Z,53.00
2019-05-21T19:56:23.855Z,53.20
2019-05-21T19:58:30.974Z,53.40
2019-05-21T20:00:40.682Z,53.80
2019-05-21T20:02:48.429Z,53.50
2019-05-21T20:04:52.426Z,53.80
2019-05-21T20:06:57.258Z,53.90
2019-05-21T20:09:02.557Z,53.90
2019-05-21T20:11:09.263Z,54.10
2019-05-21T20:13:14.283Z,54.00
2019-05-21T20:15:19.271Z,54.10
2019-05-21T20:17:25.655Z,54.00
2019-05-21T20:19:30.885Z,54.00
2019-05-21T20:21:36.500Z,54.10
2019-05-21T20:23:41.270Z,54.10
2019-05-21T20:25:55.893Z,54.10
2019-05-21T20:27:53.114Z,54.30
2019-05-21T20:30:11.588Z,54.30
2019-05-21T20:32:05.303Z,54.30
2019-05-21T20:34:11.579Z,54.30
2019-05-21T20:36:16.986Z,54.40
2019-05-21T20:38:23.610Z,54.40
2019-05-21T20:40:28.682Z,54.40
2019-05-21T20:42:33.880Z,54.40
2019-05-21T20:44:38.961Z,54.50
2019-05-21T20:46:44.595Z,54.60
2019-05-21T20:48:49.636Z,54.60
2019-05-21T20:50:54.869Z,54.70
2019-05-21T20:53:01.206Z,54.60
2019-05-21T20:55:09.159Z,54.70
2019-05-21T20:57:15.298Z,54.40
2019-05-21T20:59:20.377Z,54.60
2019-05-21T21:01:25.504Z,54.50
2019-05-21T21:03:30.943Z,54.50
2019-05-21T21:05:35.759Z,54.40
2019-05-21T21:07:41.653Z,54.40
2019-05-21T21:09:47.865Z,54.50
2019-05-21T21:11:52.864Z,54.40
2019-05-21T21:14:15.388Z,54.60
2019-05-21T21:16:07.311Z,54.60
2019-05-21T21:18:12.341Z,54.60
2019-05-21T21:20:17.361Z,54.60
2019-05-21T21:22:22.203Z,54.60
2019-05-21T21:24:27.046Z,54.60
2019-05-21T21:26:32.316Z,54.60
2019-05-21T21:28:37.195Z,54.60
2019-05-21T21:30:42.751Z,54.70
2019-05-21T21:32:47.798Z,54.60
2019-05-21T21:34:52.600Z,54.60
2019-05-21T21:36:57.925Z,54.80
2019-05-21T21:39:02.729Z,54.70
2019-05-21T21:41:08.829Z,54.70
2019-05-21T21:43:13.839Z,54.60
2019-05-21T21:45:18.766Z,54.70
2019-05-21T21:47:23.667Z,54.70
2019-05-21T21:49:31.186Z,54.70
2019-05-21T21:51:36.008Z,54.90
2019-05-21T21:53:40.902Z,54.80
2019-05-21T21:55:46.891Z,54.80
2019-05-21T21:57:51.635Z,54.80
2019-05-21T21:59:57.502Z,54.80
2019-05-21T22:02:17.363Z,54.80
2019-05-21T22:04:25.472Z,54.90
2019-05-21T22:06:39.808Z,54.80
2019-05-21T22:08:44.698Z,54.90
2019-05-21T22:10:50.546Z,55.00
2019-05-21T22:12:55.393Z,55.00
2019-05-21T22:15:02.150Z,55.30
2019-05-21T22:17:09.864Z,55.40
2019-05-21T22:19:15.776Z,55.40
2019-05-21T22:21:21.029Z,55.40
2019-05-21T22:23:26.259Z,55.50
2019-05-21T22:25:30.926Z,55.20
2019-05-21T22:27:35.616Z,55.30
2019-05-21T22:29:40.372Z,55.10
2019-05-21T22:31:45.549Z,55.00
2019-05-21T22:33:50.262Z,54.90
2019-05-21T22:35:55.010Z,54.90
2019-05-21T22:37:59.721Z,54.80
2019-05-21T22:40:04.682Z,54.80
2019-05-21T22:42:09.680Z,54.70
2019-05-21T22:44:14.483Z,54.70
2019-05-21T22:46:19.406Z,54.70
2019-05-21T22:48:24.147Z,54.70
2019-05-21T22:50:29.481Z,54.70
2019-05-21T22:52:34.283Z,54.70
2019-05-21T22:54:38.979Z,54.70
2019-05-21T22:56:43.921Z,54.70
2019-05-21T22:58:48.681Z,54.70
2019-05-21T23:00:54.667Z,54.60
2019-05-21T23:02:59.486Z,54.60
2019-05-21T23:05:05.127Z,54.50
2019-05-21T23:07:09.953Z,54.50
2019-05-21T23:09:16.085Z,54.50
2019-05-21T23:11:23.103Z,54.50
2019-05-21T23:13:27.802Z,54.50
2019-05-21T23:15:32.482Z,54.40
2019-05-21T23:17:38.854Z,54.40
2019-05-21T23:19:45.911Z,54.40
2019-05-21T23:21:52.525Z,54.30
2019-05-21T23:23:57.340Z,54.30
2019-05-21T23:26:02.478Z,54.30
2019-05-21T23:28:07.616Z,54.40
2019-05-21T23:30:14.613Z,54.50
2019-05-21T23:32:19.458Z,54.30
2019-05-21T23:34:24.164Z,54.30
2019-05-21T23:36:30.427Z,54.30
2019-05-21T23:38:36.782Z,54.30
2019-05-21T23:40:42.119Z,54.30
2019-05-21T23:42:47.144Z,54.30
2019-05-21T23:44:52.282Z,54.30
2019-05-21T23:46:57.347Z,54.30
2019-05-21T23:49:02.335Z,54.30
2019-05-21T23:51:07.155Z,54.30
2019-05-21T23:53:11.955Z,54.20
2019-05-21T23:55:16.746Z,54.30
2019-05-21T23:57:28.231Z,54.10
2019-05-21T23:59:33.020Z,54.20
